JZA7944 CYUL-CYQB
Flight info
| Callsign | JZA7944 |
|---|---|
| Flight time | 0h 36m |
| Altitude | 15000 |
| Route | ANTEG DCT OBRON DCT MOBUB DCT PESAC |
| Aircraft | CRJ9/M-SDFGIRWY/S |
Departure
| Time | 2026-05-04 18:32 |
|---|---|
| Airport | Montreal / Pierre Elliott Trudeau International Airport (CYUL) |
Arrival
| Time | 2026-05-04 19:08 |
|---|---|
| Airport | Quebec Jean Lesage International Airport (CYQB) |
| Time | Latitude | Longitude | Altitude | Speed | Heading |
|---|---|---|---|---|---|
| 2026-05-04 17:53 | 45.45941 | -73.74902 | 114 ft | 0 kts | 178° |
| 2026-05-04 18:14 | 45.45955 | -73.74903 | 118 ft | 4 kts | 178° |
| 2026-05-04 18:14 | 45.45974 | -73.74907 | 110 ft | 4 kts | 143° |
| 2026-05-04 18:15 | 45.45985 | -73.74964 | 111 ft | 4 kts | 116° |
| 2026-05-04 18:15 | 45.45996 | -73.74991 | 111 ft | 0 kts | 119° |
| 2026-05-04 18:19 | 45.45990 | -73.74976 | 111 ft | 7 kts | 119° |
| 2026-05-04 18:20 | 45.45984 | -73.74961 | 111 ft | 0 kts | 117° |
| 2026-05-04 18:20 | 45.45982 | -73.74955 | 108 ft | 3 kts | 110° |
| 2026-05-04 18:20 | 45.45979 | -73.74884 | 113 ft | 10 kts | 85° |
| 2026-05-04 18:20 | 45.45979 | -73.74783 | 114 ft | 10 kts | 107° |
| 2026-05-04 18:21 | 45.45954 | -73.74686 | 114 ft | 9 kts | 102° |
| 2026-05-04 18:21 | 45.45955 | -73.74608 | 113 ft | 5 kts | 76° |
| 2026-05-04 18:21 | 45.45967 | -73.74560 | 114 ft | 6 kts | 63° |
| 2026-05-04 18:21 | 45.45983 | -73.74498 | 113 ft | 9 kts | 71° |
| 2026-05-04 18:22 | 45.46009 | -73.74393 | 114 ft | 13 kts | 62° |
| 2026-05-04 18:22 | 45.46072 | -73.74287 | 114 ft | 12 kts | 49° |
| 2026-05-04 18:22 | 45.46134 | -73.74201 | 114 ft | 13 kts | 42° |
| 2026-05-04 18:22 | 45.46164 | -73.74162 | 113 ft | 0 kts | 64° |
| 2026-05-04 18:23 | 45.46165 | -73.74155 | 114 ft | 2 kts | 93° |
| 2026-05-04 18:23 | 45.46143 | -73.74061 | 114 ft | 10 kts | 75° |
| 2026-05-04 18:23 | 45.46171 | -73.74013 | 114 ft | 6 kts | 41° |
| 2026-05-04 18:23 | 45.46194 | -73.73985 | 113 ft | 9 kts | 42° |
| 2026-05-04 18:24 | 45.46330 | -73.73807 | 114 ft | 34 kts | 42° |
| 2026-05-04 18:24 | 45.46471 | -73.73620 | 114 ft | 25 kts | 43° |
| 2026-05-04 18:24 | 45.46591 | -73.73465 | 112 ft | 22 kts | 42° |
| 2026-05-04 18:24 | 45.46703 | -73.73316 | 114 ft | 22 kts | 44° |
| 2026-05-04 18:25 | 45.46816 | -73.73162 | 114 ft | 23 kts | 44° |
| 2026-05-04 18:25 | 45.46933 | -73.73011 | 114 ft | 23 kts | 39° |
| 2026-05-04 18:25 | 45.47053 | -73.72860 | 114 ft | 23 kts | 43° |
| 2026-05-04 18:25 | 45.47171 | -73.72704 | 113 ft | 23 kts | 42° |
| 2026-05-04 18:26 | 45.47291 | -73.72547 | 114 ft | 24 kts | 42° |
| 2026-05-04 18:26 | 45.47413 | -73.72387 | 112 ft | 24 kts | 43° |
| 2026-05-04 18:26 | 45.47530 | -73.72235 | 114 ft | 21 kts | 43° |
| 2026-05-04 18:26 | 45.47639 | -73.72090 | 114 ft | 22 kts | 44° |
| 2026-05-04 18:27 | 45.47749 | -73.71946 | 114 ft | 20 kts | 43° |
| 2026-05-04 18:27 | 45.47806 | -73.71867 | 114 ft | 10 kts | 56° |
| 2026-05-04 18:27 | 45.47794 | -73.71787 | 114 ft | 9 kts | 132° |
| 2026-05-04 18:27 | 45.47774 | -73.71755 | 114 ft | 0 kts | 131° |
| 2026-05-04 18:29 | 45.47769 | -73.71748 | 113 ft | 0 kts | 131° |
| 2026-05-04 18:30 | 45.47744 | -73.71709 | 114 ft | 9 kts | 133° |
| 2026-05-04 18:30 | 45.47676 | -73.71647 | 114 ft | 13 kts | 195° |
| 2026-05-04 18:30 | 45.47644 | -73.71682 | 113 ft | 0 kts | 223° |
| 2026-05-04 18:31 | 45.47631 | -73.71699 | 113 ft | 12 kts | 222° |
| 2026-05-04 18:31 | 45.47507 | -73.71861 | 114 ft | 64 kts | 223° |
| 2026-05-04 18:31 | 45.46981 | -73.72549 | 113 ft | 137 kts | 223° |
| 2026-05-04 18:31 | 45.46225 | -73.73544 | 439 ft | 167 kts | 224° |
| 2026-05-04 18:32 | 45.45382 | -73.74647 | 1179 ft | 183 kts | 225° |
| 2026-05-04 18:32 | 45.44470 | -73.75909 | 1869 ft | 188 kts | 230° |
| 2026-05-04 18:32 | 45.43574 | -73.77379 | 2353 ft | 208 kts | 229° |
| 2026-05-04 18:33 | 45.42685 | -73.79153 | 2802 ft | 230 kts | 251° |
| 2026-05-04 18:33 | 45.42748 | -73.81365 | 3816 ft | 233 kts | 290° |
| 2026-05-04 18:33 | 45.43611 | -73.83439 | 4471 ft | 251 kts | 300° |
| 2026-05-04 18:33 | 45.44604 | -73.85402 | 5742 ft | 241 kts | 310° |
| 2026-05-04 18:34 | 45.45961 | -73.86997 | 6115 ft | 271 kts | 316° |
| 2026-05-04 18:34 | 45.47499 | -73.88949 | 6063 ft | 306 kts | 315° |
| 2026-05-04 18:34 | 45.49294 | -73.90417 | 7524 ft | 301 kts | 342° |
| 2026-05-04 18:34 | 45.51411 | -73.90301 | 8556 ft | 318 kts | 12° |
| 2026-05-04 18:35 | 45.53339 | -73.88604 | 9319 ft | 339 kts | 40° |
| 2026-05-04 18:35 | 45.54801 | -73.85897 | 10041 ft | 348 kts | 51° |
| 2026-05-04 18:35 | 45.56113 | -73.82967 | 10776 ft | 352 kts | 53° |
| 2026-05-04 18:35 | 45.57481 | -73.80058 | 11506 ft | 354 kts | 48° |
| 2026-05-04 18:36 | 45.59051 | -73.77342 | 12121 ft | 358 kts | 41° |
| 2026-05-04 18:36 | 45.60843 | -73.74802 | 12619 ft | 365 kts | 37° |
| 2026-05-04 18:36 | 45.62719 | -73.72347 | 13303 ft | 368 kts | 36° |
| 2026-05-04 18:36 | 45.64610 | -73.69910 | 13956 ft | 371 kts | 36° |
| 2026-05-04 18:37 | 45.66514 | -73.67382 | 14529 ft | 378 kts | 37° |
| 2026-05-04 18:37 | 45.68460 | -73.64766 | 14782 ft | 391 kts | 37° |
| 2026-05-04 18:37 | 45.70428 | -73.62112 | 14885 ft | 385 kts | 37° |
| 2026-05-04 18:37 | 45.72357 | -73.59501 | 14949 ft | 380 kts | 37° |
| 2026-05-04 18:38 | 45.74272 | -73.56911 | 14999 ft | 377 kts | 37° |
| 2026-05-04 18:38 | 45.76173 | -73.54344 | 15002 ft | 376 kts | 37° |
| 2026-05-04 18:38 | 45.78078 | -73.51760 | 15001 ft | 377 kts | 37° |
| 2026-05-04 18:38 | 45.79980 | -73.49176 | 14985 ft | 377 kts | 37° |
| 2026-05-04 18:39 | 45.81895 | -73.46588 | 14981 ft | 381 kts | 37° |
| 2026-05-04 18:39 | 45.83829 | -73.43962 | 14981 ft | 385 kts | 37° |
| 2026-05-04 18:39 | 45.85784 | -73.41298 | 14976 ft | 389 kts | 37° |
| 2026-05-04 18:39 | 45.87741 | -73.38572 | 15000 ft | 395 kts | 39° |
| 2026-05-04 18:40 | 45.89658 | -73.35711 | 15033 ft | 401 kts | 41° |
| 2026-05-04 18:40 | 45.91567 | -73.32765 | 15029 ft | 405 kts | 41° |
| 2026-05-04 18:40 | 45.93475 | -73.29772 | 15009 ft | 407 kts | 42° |
| 2026-05-04 18:40 | 45.95360 | -73.26784 | 15013 ft | 401 kts | 41° |
| 2026-05-04 18:41 | 45.97239 | -73.23871 | 14994 ft | 395 kts | 40° |
| 2026-05-04 18:41 | 45.99115 | -73.21020 | 14981 ft | 391 kts | 40° |
| 2026-05-04 18:41 | 46.00965 | -73.18183 | 14972 ft | 387 kts | 40° |
| 2026-05-04 18:41 | 46.02796 | -73.15364 | 14978 ft | 383 kts | 40° |
| 2026-05-04 18:42 | 46.04610 | -73.12569 | 14980 ft | 381 kts | 40° |
| 2026-05-04 18:42 | 46.06409 | -73.09795 | 14986 ft | 378 kts | 40° |
| 2026-05-04 18:42 | 46.08196 | -73.07036 | 14981 ft | 376 kts | 40° |
| 2026-05-04 18:42 | 46.09973 | -73.04286 | 14982 ft | 373 kts | 40° |
| 2026-05-04 18:43 | 46.11736 | -73.01557 | 15005 ft | 372 kts | 39° |
| 2026-05-04 18:43 | 46.13495 | -72.98826 | 14991 ft | 370 kts | 39° |
| 2026-05-04 18:43 | 46.15248 | -72.96109 | 14992 ft | 369 kts | 39° |
| 2026-05-04 18:43 | 46.16992 | -72.93401 | 14990 ft | 368 kts | 40° |
| 2026-05-04 18:44 | 46.18681 | -72.90598 | 14992 ft | 371 kts | 44° |
| 2026-05-04 18:44 | 46.19719 | -72.88642 | 14990 ft | 373 kts | 47° |
| 2026-05-04 18:44 | 46.21717 | -72.84612 | 14994 ft | 373 kts | 48° |
| 2026-05-04 18:44 | 46.23207 | -72.81550 | 14996 ft | 372 kts | 48° |
| 2026-05-04 18:45 | 46.24710 | -72.78508 | 14992 ft | 371 kts | 47° |
| 2026-05-04 18:45 | 46.26238 | -72.75507 | 14994 ft | 370 kts | 46° |
| 2026-05-04 18:45 | 46.27768 | -72.72510 | 15018 ft | 370 kts | 46° |
| 2026-05-04 18:45 | 46.29297 | -72.69505 | 15004 ft | 370 kts | 46° |
| 2026-05-04 18:46 | 46.30821 | -72.66506 | 15050 ft | 371 kts | 47° |
| 2026-05-04 18:46 | 46.32381 | -72.63534 | 15051 ft | 372 kts | 45° |
| 2026-05-04 18:46 | 46.33922 | -72.60524 | 15051 ft | 373 kts | 47° |
| 2026-05-04 18:46 | 46.35445 | -72.57483 | 15019 ft | 373 kts | 47° |
| 2026-05-04 18:47 | 46.36962 | -72.54435 | 15035 ft | 373 kts | 47° |
| 2026-05-04 18:47 | 46.38479 | -72.51389 | 15005 ft | 373 kts | 47° |
| 2026-05-04 18:47 | 46.40008 | -72.48353 | 14996 ft | 372 kts | 46° |
| 2026-05-04 18:47 | 46.41534 | -72.45327 | 15003 ft | 372 kts | 46° |
| 2026-05-04 18:48 | 46.43059 | -72.42301 | 14997 ft | 372 kts | 47° |
| 2026-05-04 18:48 | 46.44585 | -72.39271 | 15007 ft | 372 kts | 47° |
| 2026-05-04 18:48 | 46.46107 | -72.36245 | 14997 ft | 371 kts | 47° |
| 2026-05-04 18:48 | 46.47622 | -72.33223 | 14998 ft | 370 kts | 46° |
| 2026-05-04 18:49 | 46.49139 | -72.30195 | 14997 ft | 370 kts | 46° |
| 2026-05-04 18:49 | 46.50651 | -72.27175 | 14993 ft | 370 kts | 47° |
| 2026-05-04 18:49 | 46.52162 | -72.24158 | 14993 ft | 369 kts | 47° |
| 2026-05-04 18:49 | 46.53671 | -72.21142 | 14993 ft | 369 kts | 47° |
| 2026-05-04 18:50 | 46.55137 | -72.18078 | 14988 ft | 372 kts | 52° |
| 2026-05-04 18:50 | 46.56284 | -72.14683 | 14996 ft | 378 kts | 62° |
| 2026-05-04 18:50 | 46.57229 | -72.11115 | 15005 ft | 379 kts | 64° |
| 2026-05-04 18:50 | 46.58144 | -72.07504 | 14803 ft | 385 kts | 64° |
| 2026-05-04 18:51 | 46.59068 | -72.03925 | 14539 ft | 377 kts | 63° |
| 2026-05-04 18:51 | 46.60042 | -72.00398 | 14233 ft | 365 kts | 61° |
| 2026-05-04 18:51 | 46.61073 | -71.97136 | 13928 ft | 355 kts | 58° |
| 2026-05-04 18:51 | 46.62168 | -71.93967 | 13628 ft | 347 kts | 57° |
| 2026-05-04 18:52 | 46.63246 | -71.90854 | 13237 ft | 343 kts | 58° |
| 2026-05-04 18:52 | 46.64312 | -71.87760 | 12880 ft | 340 kts | 58° |
| 2026-05-04 18:52 | 46.65358 | -71.84689 | 12487 ft | 337 kts | 59° |
| 2026-05-04 18:52 | 46.66380 | -71.81641 | 12079 ft | 334 kts | 59° |
| 2026-05-04 18:53 | 46.67385 | -71.78604 | 11681 ft | 331 kts | 60° |
| 2026-05-04 18:53 | 46.68378 | -71.75599 | 11285 ft | 328 kts | 60° |
| 2026-05-04 18:53 | 46.69366 | -71.72615 | 10903 ft | 325 kts | 60° |
| 2026-05-04 18:53 | 46.70345 | -71.69665 | 10520 ft | 322 kts | 60° |
| 2026-05-04 18:54 | 46.71320 | -71.66733 | 10137 ft | 320 kts | 61° |
| 2026-05-04 18:54 | 46.72285 | -71.63832 | 9766 ft | 317 kts | 60° |
| 2026-05-04 18:54 | 46.73498 | -71.61220 | 9380 ft | 308 kts | 43° |
| 2026-05-04 18:54 | 46.75003 | -71.59051 | 8986 ft | 302 kts | 38° |
| 2026-05-04 18:55 | 46.76551 | -71.56993 | 8593 ft | 299 kts | 38° |
| 2026-05-04 18:55 | 46.79581 | -71.52932 | 7818 ft | 293 kts | 38° |
| 2026-05-04 18:55 | 46.81051 | -71.50943 | 7390 ft | 283 kts | 39° |
| 2026-05-04 18:56 | 46.82455 | -71.49024 | 7102 ft | 269 kts | 40° |
| 2026-05-04 18:56 | 46.83835 | -71.47255 | 6724 ft | 261 kts | 36° |
| 2026-05-04 18:56 | 46.85206 | -71.45521 | 6372 ft | 261 kts | 38° |
| 2026-05-04 18:56 | 46.86550 | -71.43750 | 6060 ft | 259 kts | 39° |
| 2026-05-04 18:57 | 46.87831 | -71.41976 | 5923 ft | 249 kts | 39° |
| 2026-05-04 18:57 | 46.89072 | -71.40284 | 5767 ft | 240 kts | 38° |
| 2026-05-04 18:57 | 46.90271 | -71.38670 | 5602 ft | 237 kts | 39° |
| 2026-05-04 18:57 | 46.91510 | -71.36996 | 5467 ft | 241 kts | 39° |
| 2026-05-04 18:58 | 46.92761 | -71.35339 | 5360 ft | 243 kts | 39° |
| 2026-05-04 18:58 | 46.94009 | -71.33700 | 5380 ft | 240 kts | 38° |
| 2026-05-04 18:58 | 46.95251 | -71.32082 | 5362 ft | 238 kts | 38° |
| 2026-05-04 18:58 | 46.96488 | -71.30487 | 5353 ft | 236 kts | 38° |
| 2026-05-04 18:59 | 46.97724 | -71.28916 | 5289 ft | 236 kts | 37° |
| 2026-05-04 18:59 | 46.98952 | -71.27353 | 5187 ft | 232 kts | 38° |
| 2026-05-04 18:59 | 47.00160 | -71.25818 | 5078 ft | 228 kts | 37° |
| 2026-05-04 18:59 | 47.01360 | -71.24315 | 5001 ft | 228 kts | 37° |
| 2026-05-04 19:00 | 47.02584 | -71.22785 | 4682 ft | 228 kts | 38° |
| 2026-05-04 19:00 | 47.03736 | -71.21310 | 4648 ft | 218 kts | 37° |
| 2026-05-04 19:00 | 47.04871 | -71.19914 | 4619 ft | 209 kts | 37° |
| 2026-05-04 19:00 | 47.05680 | -71.18191 | 4525 ft | 208 kts | 73° |
| 2026-05-04 19:01 | 47.05654 | -71.16013 | 4497 ft | 229 kts | 109° |
| 2026-05-04 19:01 | 47.04713 | -71.14004 | 4445 ft | 248 kts | 143° |
| 2026-05-04 19:01 | 47.03227 | -71.12861 | 4354 ft | 235 kts | 170° |
| 2026-05-04 19:01 | 47.01656 | -71.12757 | 4268 ft | 221 kts | 195° |
| 2026-05-04 19:02 | 47.00192 | -71.13207 | 4143 ft | 215 kts | 201° |
| 2026-05-04 19:02 | 46.98886 | -71.14076 | 4114 ft | 200 kts | 213° |
| 2026-05-04 19:02 | 46.97738 | -71.15143 | 3964 ft | 194 kts | 220° |
| 2026-05-04 19:02 | 46.96635 | -71.16277 | 3714 ft | 194 kts | 221° |
| 2026-05-04 19:03 | 46.95558 | -71.17471 | 3492 ft | 194 kts | 223° |
| 2026-05-04 19:03 | 46.94518 | -71.18683 | 3294 ft | 185 kts | 223° |
| 2026-05-04 19:03 | 46.93553 | -71.19837 | 3064 ft | 174 kts | 224° |
| 2026-05-04 19:03 | 46.92626 | -71.20922 | 2786 ft | 168 kts | 223° |
| 2026-05-04 19:04 | 46.91724 | -71.21973 | 2600 ft | 168 kts | 223° |
| 2026-05-04 19:04 | 46.90790 | -71.23089 | 2539 ft | 180 kts | 223° |
| 2026-05-04 19:04 | 46.89783 | -71.24283 | 2552 ft | 193 kts | 221° |
| 2026-05-04 19:04 | 46.88727 | -71.25456 | 2557 ft | 185 kts | 220° |
| 2026-05-04 19:05 | 46.87755 | -71.26603 | 2519 ft | 175 kts | 225° |
| 2026-05-04 19:05 | 46.86918 | -71.27864 | 2392 ft | 169 kts | 231° |
| 2026-05-04 19:05 | 46.86174 | -71.29092 | 2212 ft | 156 kts | 232° |
| 2026-05-04 19:05 | 46.85441 | -71.30237 | 1949 ft | 151 kts | 229° |
| 2026-05-04 19:06 | 46.84698 | -71.31303 | 1766 ft | 149 kts | 227° |
| 2026-05-04 19:06 | 46.83969 | -71.32367 | 1554 ft | 145 kts | 228° |
| 2026-05-04 19:06 | 46.83286 | -71.33333 | 1317 ft | 130 kts | 226° |
| 2026-05-04 19:06 | 46.82660 | -71.34221 | 1052 ft | 123 kts | 229° |
| 2026-05-04 19:07 | 46.82057 | -71.35128 | 881 ft | 130 kts | 229° |
| 2026-05-04 19:07 | 46.81399 | -71.36096 | 688 ft | 136 kts | 227° |
| 2026-05-04 19:07 | 46.80735 | -71.37046 | 505 ft | 133 kts | 227° |
| 2026-05-04 19:07 | 46.80093 | -71.37977 | 317 ft | 128 kts | 227° |
| 2026-05-04 19:08 | 46.79472 | -71.38879 | 252 ft | 120 kts | 224° |
| 2026-05-04 19:08 | 46.78969 | -71.39597 | 251 ft | 71 kts | 224° |
| 2026-05-04 19:08 | 46.78751 | -71.39907 | 251 ft | 24 kts | 225° |
| 2026-05-04 19:08 | 46.78648 | -71.40053 | 251 ft | 17 kts | 224° |
| 2026-05-04 19:09 | 46.78550 | -71.40170 | 251 ft | 12 kts | 184° |
| 2026-05-04 19:09 | 46.78489 | -71.40085 | 251 ft | 14 kts | 112° |
| 2026-05-04 19:09 | 46.78489 | -71.39931 | 251 ft | 14 kts | 88° |
| 2026-05-04 19:09 | 46.78509 | -71.39834 | 251 ft | 12 kts | 49° |
| 2026-05-04 19:10 | 46.78585 | -71.39728 | 251 ft | 18 kts | 44° |
| 2026-05-04 19:10 | 46.78686 | -71.39583 | 251 ft | 21 kts | 42° |
| 2026-05-04 19:10 | 46.78779 | -71.39451 | 251 ft | 19 kts | 45° |
| 2026-05-04 19:10 | 46.78886 | -71.39337 | 251 ft | 21 kts | 36° |
| 2026-05-04 19:11 | 46.79009 | -71.39184 | 251 ft | 26 kts | 44° |
| 2026-05-04 19:11 | 46.79148 | -71.38982 | 251 ft | 31 kts | 44° |
| 2026-05-04 19:11 | 46.79254 | -71.38821 | 251 ft | 22 kts | 49° |
| 2026-05-04 19:11 | 46.79370 | -71.38657 | 251 ft | 21 kts | 44° |
| 2026-05-04 19:12 | 46.79394 | -71.38563 | 251 ft | 6 kts | 127° |
| 2026-05-04 19:12 | 46.79322 | -71.38560 | 251 ft | 12 kts | 190° |
| 2026-05-04 19:12 | 46.79267 | -71.38573 | 251 ft | 3 kts | 193° |
| 2026-05-04 19:13 | 46.79237 | -71.38577 | 251 ft | 1 kts | 151° |
| 2026-05-04 19:13 | 46.79230 | -71.38539 | 251 ft | 10 kts | 98° |
| 2026-05-04 19:13 | 46.79224 | -71.38485 | 251 ft | 0 kts | 99° |